sensor_id;sensor_type;location;lat;lon;timestamp;temperature;humidity
9049;DHT22;4559;47.252;9.592;2022-09-09T00:03:55;18.60;99.90
9049;DHT22;4559;47.252;9.592;2022-09-09T00:06:30;18.60;99.90
9049;DHT22;4559;47.252;9.592;2022-09-09T00:09:12;18.60;99.90
9049;DHT22;4559;47.252;9.592;2022-09-09T00:16:51;18.40;99.90
9049;DHT22;4559;47.252;9.592;2022-09-09T00:19:31;18.40;99.90
9049;DHT22;4559;47.252;9.592;2022-09-09T00:24:49;18.30;99.90
9049;DHT22;4559;47.252;9.592;2022-09-09T00:29:56;18.30;99.90
9049;DHT22;4559;47.252;9.592;2022-09-09T00:32:27;18.30;99.90
9049;DHT22;4559;47.252;9.592;2022-09-09T00:35:15;18.30;99.90
9049;DHT22;4559;47.252;9.592;2022-09-09T00:37:44;18.20;99.90
9049;DHT22;4559;47.252;9.592;2022-09-09T00:40:39;18.20;99.90
9049;DHT22;4559;47.252;9.592;2022-09-09T00:48:51;18.10;99.90
9049;DHT22;4559;47.252;9.592;2022-09-09T00:55:15;18.10;99.90
9049;DHT22;4559;47.252;9.592;2022-09-09T00:57:41;18.00;99.90
9049;DHT22;4559;47.252;9.592;2022-09-09T01:00:22;18.00;99.90
9049;DHT22;4559;47.252;9.592;2022-09-09T01:08:33;18.00;99.90
9049;DHT22;4559;47.252;9.592;2022-09-09T01:11:01;18.00;99.90
9049;DHT22;4559;47.252;9.592;2022-09-09T01:13:33;18.00;99.90
9049;DHT22;4559;47.252;9.592;2022-09-09T01:16:01;18.00;99.90
9049;DHT22;4559;47.252;9.592;2022-09-09T01:18:37;18.10;99.90
9049;DHT22;4559;47.252;9.592;2022-09-09T01:23:55;18.10;99.90
9049;DHT22;4559;47.252;9.592;2022-09-09T01:26:51;18.10;99.90
9049;DHT22;4559;47.252;9.592;2022-09-09T01:29:19;18.00;99.90
9049;DHT22;4559;47.252;9.592;2022-09-09T01:31:55;18.00;99.90
9049;DHT22;4559;47.252;9.592;2022-09-09T01:34:23;18.00;99.90
9049;DHT22;4559;47.252;9.592;2022-09-09T01:37:02;18.00;99.90
9049;DHT22;4559;47.252;9.592;2022-09-09T01:39:30;18.00;99.90
9049;DHT22;4559;47.252;9.592;2022-09-09T01:41:56;18.00;99.90
9049;DHT22;4559;47.252;9.592;2022-09-09T01:44:23;17.90;99.90
9049;DHT22;4559;47.252;9.592;2022-09-09T01:46:50;18.00;99.90
9049;DHT22;4559;47.252;9.592;2022-09-09T01:49:16;17.90;99.90
9049;DHT22;4559;47.252;9.592;2022-09-09T01:51:42;17.90;99.90
9049;DHT22;4559;47.252;9.592;2022-09-09T01:54:09;18.00;99.90
9049;DHT22;4559;47.252;9.592;2022-09-09T02:02:44;17.90;99.90
9049;DHT22;4559;47.252;9.592;2022-09-09T02:05:35;17.90;99.90
9049;DHT22;4559;47.252;9.592;2022-09-09T02:08:08;17.90;99.90
9049;DHT22;4559;47.252;9.592;2022-09-09T02:10:46;17.90;99.90
9049;DHT22;4559;47.252;9.592;2022-09-09T02:13:16;17.90;99.90
9049;DHT22;4559;47.252;9.592;2022-09-09T02:18:28;17.90;99.90
9049;DHT22;4559;47.252;9.592;2022-09-09T02:20:56;17.90;99.90
9049;DHT22;4559;47.252;9.592;2022-09-09T02:23:24;17.80;99.90
9049;DHT22;4559;47.252;9.592;2022-09-09T02:25:51;17.80;99.90
9049;DHT22;4559;47.252;9.592;2022-09-09T02:28:19;17.80;99.90
9049;DHT22;4559;47.252;9.592;2022-09-09T02:30:48;17.70;99.90
9049;DHT22;4559;47.252;9.592;2022-09-09T02:33:24;17.80;99.90
9049;DHT22;4559;47.252;9.592;2022-09-09T02:35:52;17.70;99.90
9049;DHT22;4559;47.252;9.592;2022-09-09T02:38:20;17.70;99.90
9049;DHT22;4559;47.252;9.592;2022-09-09T02:40:47;17.70;99.90
9049;DHT22;4559;47.252;9.592;2022-09-09T02:43:14;17.70;99.90
9049;DHT22;4559;47.252;9.592;2022-09-09T02:45:57;17.70;99.90
9049;DHT22;4559;47.252;9.592;2022-09-09T02:51:29;17.60;99.90
9049;DHT22;4559;47.252;9.592;2022-09-09T02:54:21;17.50;99.90
9049;DHT22;4559;47.252;9.592;2022-09-09T02:56:51;17.50;99.90
9049;DHT22;4559;47.252;9.592;2022-09-09T02:59:20;17.50;99.90
9049;DHT22;4559;47.252;9.592;2022-09-09T03:01:46;17.50;99.90
9049;DHT22;4559;47.252;9.592;2022-09-09T03:04:12;17.40;99.90
9049;DHT22;4559;47.252;9.592;2022-09-09T03:06:38;17.40;99.90
9049;DHT22;4559;47.252;9.592;2022-09-09T03:09:04;17.30;99.90
9049;DHT22;4559;47.252;9.592;2022-09-09T03:11:30;17.30;99.90
9049;DHT22;4559;47.252;9.592;2022-09-09T03:13:56;17.30;99.90
9049;DHT22;4559;47.252;9.592;2022-09-09T03:16:24;17.30;99.90
9049;DHT22;4559;47.252;9.592;2022-09-09T03:18:50;17.20;99.90
9049;DHT22;4559;47.252;9.592;2022-09-09T03:21:16;17.20;99.90
9049;DHT22;4559;47.252;9.592;2022-09-09T03:23:41;17.20;99.90
9049;DHT22;4559;47.252;9.592;2022-09-09T03:26:07;17.20;99.90
9049;DHT22;4559;47.252;9.592;2022-09-09T03:28:33;17.20;99.90
9049;DHT22;4559;47.252;9.592;2022-09-09T03:31:02;17.20;99.90
9049;DHT22;4559;47.252;9.592;2022-09-09T03:33:28;17.10;99.90
9049;DHT22;4559;47.252;9.592;2022-09-09T03:35:54;17.10;99.90
9049;DHT22;4559;47.252;9.592;2022-09-09T03:38:23;17.10;99.90
9049;DHT22;4559;47.252;9.592;2022-09-09T03:40:57;17.10;99.90
9049;DHT22;4559;47.252;9.592;2022-09-09T03:43:25;17.10;99.90
9049;DHT22;4559;47.252;9.592;2022-09-09T03:45:51;17.20;99.90
9049;DHT22;4559;47.252;9.592;2022-09-09T03:48:20;17.20;99.90
9049;DHT22;4559;47.252;9.592;2022-09-09T03:50:47;17.10;99.90
9049;DHT22;4559;47.252;9.592;2022-09-09T03:53:15;17.20;99.90
9049;DHT22;4559;47.252;9.592;2022-09-09T03:55:48;17.20;99.90
9049;DHT22;4559;47.252;9.592;2022-09-09T03:58:14;17.20;99.90
9049;DHT22;4559;47.252;9.592;2022-09-09T04:00:40;17.30;99.90
9049;DHT22;4559;47.252;9.592;2022-09-09T04:03:11;17.20;99.90
9049;DHT22;4559;47.252;9.592;2022-09-09T04:05:39;17.30;99.90
9049;DHT22;4559;47.252;9.592;2022-09-09T04:08:09;17.20;99.90
9049;DHT22;4559;47.252;9.592;2022-09-09T04:10:35;17.20;99.90
9049;DHT22;4559;47.252;9.592;2022-09-09T04:13:04;17.20;99.90
9049;DHT22;4559;47.252;9.592;2022-09-09T04:15:30;17.20;99.90
9049;DHT22;4559;47.252;9.592;2022-09-09T04:17:56;17.20;99.90
9049;DHT22;4559;47.252;9.592;2022-09-09T04:20:22;17.20;99.90
9049;DHT22;4559;47.252;9.592;2022-09-09T04:22:47;17.20;99.90
9049;DHT22;4559;47.252;9.592;2022-09-09T04:25:13;17.20;99.90
9049;DHT22;4559;47.252;9.592;2022-09-09T04:27:39;17.20;99.90
9049;DHT22;4559;47.252;9.592;2022-09-09T04:30:05;17.20;99.90
9049;DHT22;4559;47.252;9.592;2022-09-09T04:32:33;17.20;99.90
9049;DHT22;4559;47.252;9.592;2022-09-09T04:34:58;17.20;99.90
9049;DHT22;4559;47.252;9.592;2022-09-09T04:37:24;17.20;99.90
9049;DHT22;4559;47.252;9.592;2022-09-09T04:39:50;17.20;99.90
9049;DHT22;4559;47.252;9.592;2022-09-09T04:42:16;17.20;99.90
9049;DHT22;4559;47.252;9.592;2022-09-09T04:44:43;17.10;99.90
9049;DHT22;4559;47.252;9.592;2022-09-09T04:47:09;17.10;99.90
9049;DHT22;4559;47.252;9.592;2022-09-09T04:49:35;17.10;99.90
9049;DHT22;4559;47.252;9.592;2022-09-09T04:52:02;17.00;99.90
9049;DHT22;4559;47.252;9.592;2022-09-09T04:54:28;17.10;99.90
9049;DHT22;4559;47.252;9.592;2022-09-09T04:56:54;17.10;99.90
9049;DHT22;4559;47.252;9.592;2022-09-09T04:59:20;17.00;99.90
9049;DHT22;4559;47.252;9.592;2022-09-09T05:01:47;17.00;99.90
9049;DHT22;4559;47.252;9.592;2022-09-09T05:04:13;17.00;99.90
9049;DHT22;4559;47.252;9.592;2022-09-09T05:06:40;17.00;99.90
9049;DHT22;4559;47.252;9.592;2022-09-09T05:09:07;17.00;99.90
9049;DHT22;4559;47.252;9.592;2022-09-09T05:11:33;17.00;99.90
9049;DHT22;4559;47.252;9.592;2022-09-09T05:14:01;17.10;99.90
9049;DHT22;4559;47.252;9.592;2022-09-09T05:16:26;17.10;99.90
9049;DHT22;4559;47.252;9.592;2022-09-09T05:18:52;17.10;99.90
9049;DHT22;4559;47.252;9.592;2022-09-09T05:21:19;17.10;99.90
9049;DHT22;4559;47.252;9.592;2022-09-09T05:23:46;17.20;99.90
9049;DHT22;4559;47.252;9.592;2022-09-09T05:26:14;17.20;99.90
9049;DHT22;4559;47.252;9.592;2022-09-09T05:28:40;17.30;99.90
9049;DHT22;4559;47.252;9.592;2022-09-09T05:31:08;17.30;99.90
9049;DHT22;4559;47.252;9.592;2022-09-09T05:33:35;17.20;99.90
9049;DHT22;4559;47.252;9.592;2022-09-09T05:36:06;17.30;99.90
9049;DHT22;4559;47.252;9.592;2022-09-09T05:38:33;17.30;99.90
9049;DHT22;4559;47.252;9.592;2022-09-09T05:41:01;17.30;99.90
9049;DHT22;4559;47.252;9.592;2022-09-09T05:43:28;17.30;99.90
9049;DHT22;4559;47.252;9.592;2022-09-09T05:46:11;17.30;99.90
9049;DHT22;4559;47.252;9.592;2022-09-09T05:48:42;17.30;99.90
9049;DHT22;4559;47.252;9.592;2022-09-09T05:51:13;17.40;99.90
9049;DHT22;4559;47.252;9.592;2022-09-09T05:53:41;17.30;99.90
9049;DHT22;4559;47.252;9.592;2022-09-09T05:56:15;17.40;99.90
9049;DHT22;4559;47.252;9.592;2022-09-09T05:58:42;17.40;99.90
9049;DHT22;4559;47.252;9.592;2022-09-09T06:01:10;17.40;99.90
9049;DHT22;4559;47.252;9.592;2022-09-09T06:03:38;17.40;99.90
9049;DHT22;4559;47.252;9.592;2022-09-09T06:06:06;17.40;99.90
9049;DHT22;4559;47.252;9.592;2022-09-09T06:08:33;17.40;99.90
9049;DHT22;4559;47.252;9.592;2022-09-09T06:11:09;17.50;99.90
9049;DHT22;4559;47.252;9.592;2022-09-09T06:13:36;17.50;99.90
9049;DHT22;4559;47.252;9.592;2022-09-09T06:16:06;17.50;99.90
9049;DHT22;4559;47.252;9.592;2022-09-09T06:18:33;17.60;99.90
9049;DHT22;4559;47.252;9.592;2022-09-09T06:21:03;17.50;99.90
9049;DHT22;4559;47.252;9.592;2022-09-09T06:23:30;17.60;99.90
9049;DHT22;4559;47.252;9.592;2022-09-09T06:26:09;17.60;99.90
9049;DHT22;4559;47.252;9.592;2022-09-09T06:28:35;17.60;99.90
9049;DHT22;4559;47.252;9.592;2022-09-09T06:31:07;17.60;99.90
9049;DHT22;4559;47.252;9.592;2022-09-09T06:33:34;17.60;99.90
9049;DHT22;4559;47.252;9.592;2022-09-09T06:36:02;17.70;99.90
9049;DHT22;4559;47.252;9.592;2022-09-09T06:38:29;17.70;99.90
9049;DHT22;4559;47.252;9.592;2022-09-09T06:40:56;17.70;99.90
9049;DHT22;4559;47.252;9.592;2022-09-09T06:43:23;17.70;99.90
9049;DHT22;4559;47.252;9.592;2022-09-09T06:46:02;17.80;99.90
9049;DHT22;4559;47.252;9.592;2022-09-09T06:48:28;17.80;99.90
9049;DHT22;4559;47.252;9.592;2022-09-09T06:51:04;17.90;99.90
9049;DHT22;4559;47.252;9.592;2022-09-09T06:53:30;17.90;99.90
9049;DHT22;4559;47.252;9.592;2022-09-09T06:58:40;18.00;99.90
9049;DHT22;4559;47.252;9.592;2022-09-09T07:01:10;18.10;99.90
9049;DHT22;4559;47.252;9.592;2022-09-09T07:03:38;18.10;99.90
9049;DHT22;4559;47.252;9.592;2022-09-09T07:06:05;18.20;99.90
9049;DHT22;4559;47.252;9.592;2022-09-09T07:08:31;18.20;99.90
9049;DHT22;4559;47.252;9.592;2022-09-09T07:11:04;18.20;99.90
9049;DHT22;4559;47.252;9.592;2022-09-09T07:13:30;18.20;99.90
9049;DHT22;4559;47.252;9.592;2022-09-09T07:16:07;18.30;99.90
9049;DHT22;4559;47.252;9.592;2022-09-09T07:18:33;18.30;99.90
9049;DHT22;4559;47.252;9.592;2022-09-09T07:21:00;18.30;99.90
9049;DHT22;4559;47.252;9.592;2022-09-09T07:23:27;18.40;99.90
9049;DHT22;4559;47.252;9.592;2022-09-09T07:25:53;18.40;99.90
9049;DHT22;4559;47.252;9.592;2022-09-09T07:28:20;18.50;99.90
9049;DHT22;4559;47.252;9.592;2022-09-09T07:30:54;18.50;99.90
9049;DHT22;4559;47.252;9.592;2022-09-09T07:33:19;18.60;99.90
9049;DHT22;4559;47.252;9.592;2022-09-09T07:35:45;18.70;99.90
9049;DHT22;4559;47.252;9.592;2022-09-09T07:38:13;18.80;99.90
9049;DHT22;4559;47.252;9.592;2022-09-09T07:40:40;18.90;99.90
9049;DHT22;4559;47.252;9.592;2022-09-09T07:43:05;18.90;99.90
9049;DHT22;4559;47.252;9.592;2022-09-09T07:45:33;19.00;99.90
9049;DHT22;4559;47.252;9.592;2022-09-09T07:48:00;19.00;99.90
9049;DHT22;4559;47.252;9.592;2022-09-09T07:50:26;19.10;99.90
9049;DHT22;4559;47.252;9.592;2022-09-09T07:52:52;19.00;99.90
9049;DHT22;4559;47.252;9.592;2022-09-09T07:55:19;19.00;99.90
9049;DHT22;4559;47.252;9.592;2022-09-09T07:57:45;19.00;99.90
9049;DHT22;4559;47.252;9.592;2022-09-09T08:00:11;18.90;99.90
9049;DHT22;4559;47.252;9.592;2022-09-09T08:02:37;18.90;99.90
9049;DHT22;4559;47.252;9.592;2022-09-09T08:05:03;18.90;99.90
9049;DHT22;4559;47.252;9.592;2022-09-09T08:07:30;18.80;99.90
9049;DHT22;4559;47.252;9.592;2022-09-09T08:09:55;18.80;99.90
9049;DHT22;4559;47.252;9.592;2022-09-09T08:12:21;18.80;99.90
9049;DHT22;4559;47.252;9.592;2022-09-09T08:14:48;18.80;99.90
9049;DHT22;4559;47.252;9.592;2022-09-09T08:17:14;18.80;99.90
9049;DHT22;4559;47.252;9.592;2022-09-09T08:19:39;18.70;99.90
9049;DHT22;4559;47.252;9.592;2022-09-09T08:22:05;18.60;99.90
9049;DHT22;4559;47.252;9.592;2022-09-09T08:24:31;18.60;99.90
9049;DHT22;4559;47.252;9.592;2022-09-09T08:26:56;18.60;99.90
9049;DHT22;4559;47.252;9.592;2022-09-09T08:29:22;18.60;99.90
9049;DHT22;4559;47.252;9.592;2022-09-09T08:31:53;18.50;99.90
9049;DHT22;4559;47.252;9.592;2022-09-09T08:34:21;18.50;99.90
9049;DHT22;4559;47.252;9.592;2022-09-09T08:36:48;18.40;99.90
9049;DHT22;4559;47.252;9.592;2022-09-09T08:39:15;18.50;99.90
9049;DHT22;4559;47.252;9.592;2022-09-09T08:55:22;18.00;99.90
9049;DHT22;4559;47.252;9.592;2022-09-09T08:57:52;18.00;99.90
9049;DHT22;4559;47.252;9.592;2022-09-09T09:00:19;18.00;99.90
9049;DHT22;4559;47.252;9.592;2022-09-09T09:03:13;18.00;99.90
9049;DHT22;4559;47.252;9.592;2022-09-09T09:05:39;17.90;99.90
9049;DHT22;4559;47.252;9.592;2022-09-09T09:08:27;17.90;99.90
9049;DHT22;4559;47.252;9.592;2022-09-09T09:10:57;17.80;99.90
9049;DHT22;4559;47.252;9.592;2022-09-09T09:18:43;17.70;99.90
9049;DHT22;4559;47.252;9.592;2022-09-09T09:21:25;17.70;99.90
9049;DHT22;4559;47.252;9.592;2022-09-09T09:23:57;17.70;99.90
9049;DHT22;4559;47.252;9.592;2022-09-09T09:26:31;17.70;99.90
9049;DHT22;4559;47.252;9.592;2022-09-09T09:28:58;17.80;99.90
9049;DHT22;4559;47.252;9.592;2022-09-09T09:31:25;17.80;99.90
9049;DHT22;4559;47.252;9.592;2022-09-09T09:33:56;17.80;99.90
9049;DHT22;4559;47.252;9.592;2022-09-09T09:36:33;17.90;99.90
9049;DHT22;4559;47.252;9.592;2022-09-09T09:39:01;17.90;99.90
9049;DHT22;4559;47.252;9.592;2022-09-09T09:41:41;18.00;99.90
9049;DHT22;4559;47.252;9.592;2022-09-09T09:44:31;17.90;99.90
9049;DHT22;4559;47.252;9.592;2022-09-09T09:49:54;18.10;99.90
9049;DHT22;4559;47.252;9.592;2022-09-09T09:52:28;18.20;99.90
9049;DHT22;4559;47.252;9.592;2022-09-09T09:54:56;18.40;99.90
9049;DHT22;4559;47.252;9.592;2022-09-09T09:57:28;18.80;99.90
9049;DHT22;4559;47.252;9.592;2022-09-09T10:00:24;19.00;99.90
9049;DHT22;4559;47.252;9.592;2022-09-09T10:02:50;19.30;99.90
9049;DHT22;4559;47.252;9.592;2022-09-09T10:05:25;19.50;99.90
9049;DHT22;4559;47.252;9.592;2022-09-09T10:08:08;19.70;99.90
9049;DHT22;4559;47.252;9.592;2022-09-09T10:19:37;19.80;99.90
9049;DHT22;4559;47.252;9.592;2022-09-09T10:25:03;19.80;99.90
9049;DHT22;4559;47.252;9.592;2022-09-09T10:27:50;19.90;99.90
9049;DHT22;4559;47.252;9.592;2022-09-09T10:41:15;19.60;99.90
9049;DHT22;4559;47.252;9.592;2022-09-09T10:51:36;19.60;99.90
9049;DHT22;4559;47.252;9.592;2022-09-09T10:56:42;20.00;99.90
9049;DHT22;4559;47.252;9.592;2022-09-09T10:59:19;20.50;99.90
9049;DHT22;4559;47.252;9.592;2022-09-09T11:04:25;21.10;99.90
9049;DHT22;4559;47.252;9.592;2022-09-09T11:06:55;21.30;99.90
9049;DHT22;4559;47.252;9.592;2022-09-09T11:09:27;21.40;99.90
9049;DHT22;4559;47.252;9.592;2022-09-09T11:11:55;21.40;99.90
9049;DHT22;4559;47.252;9.592;2022-09-09T11:14:38;21.40;99.90
9049;DHT22;4559;47.252;9.592;2022-09-09T11:17:22;21.40;99.90
9049;DHT22;4559;47.252;9.592;2022-09-09T11:19:49;21.70;99.90
9049;DHT22;4559;47.252;9.592;2022-09-09T11:22:37;22.10;99.90
9049;DHT22;4559;47.252;9.592;2022-09-09T11:30:25;23.10;99.90
9049;DHT22;4559;47.252;9.592;2022-09-09T11:40:55;23.90;99.90
9049;DHT22;4559;47.252;9.592;2022-09-09T11:46:07;24.30;99.90
9049;DHT22;4559;47.252;9.592;2022-09-09T11:48:37;24.40;99.60
9049;DHT22;4559;47.252;9.592;2022-09-09T12:01:41;24.80;96.90
9049;DHT22;4559;47.252;9.592;2022-09-09T12:04:33;24.60;98.10
9049;DHT22;4559;47.252;9.592;2022-09-09T12:07:02;24.50;97.80
9049;DHT22;4559;47.252;9.592;2022-09-09T12:09:45;24.30;97.60
9049;DHT22;4559;47.252;9.592;2022-09-09T12:19:41;23.60;98.00
9049;DHT22;4559;47.252;9.592;2022-09-09T12:27:36;23.90;97.50
9049;DHT22;4559;47.252;9.592;2022-09-09T12:30:11;24.10;97.30
9049;DHT22;4559;47.252;9.592;2022-09-09T12:32:37;24.10;97.20
9049;DHT22;4559;47.252;9.592;2022-09-09T12:35:21;24.10;96.50
9049;DHT22;4559;47.252;9.592;2022-09-09T12:37:56;23.90;95.50
9049;DHT22;4559;47.252;9.592;2022-09-09T12:40:28;23.80;95.10
9049;DHT22;4559;47.252;9.592;2022-09-09T12:42:54;23.60;95.70
9049;DHT22;4559;47.252;9.592;2022-09-09T12:45:25;23.50;96.00
9049;DHT22;4559;47.252;9.592;2022-09-09T12:48:05;23.40;96.10
9049;DHT22;4559;47.252;9.592;2022-09-09T12:50:35;23.20;96.80
9049;DHT22;4559;47.252;9.592;2022-09-09T12:53:07;23.00;97.80
9049;DHT22;4559;47.252;9.592;2022-09-09T12:55:38;22.90;98.10
9049;DHT22;4559;47.252;9.592;2022-09-09T12:58:05;22.70;97.10
9049;DHT22;4559;47.252;9.592;2022-09-09T13:00:32;22.80;97.60
9049;DHT22;4559;47.252;9.592;2022-09-09T13:03:14;23.10;97.20
9049;DHT22;4559;47.252;9.592;2022-09-09T13:05:41;23.40;97.00
9049;DHT22;4559;47.252;9.592;2022-09-09T13:08:12;23.70;97.00
9049;DHT22;4559;47.252;9.592;2022-09-09T13:10:52;23.90;96.70
9049;DHT22;4559;47.252;9.592;2022-09-09T13:13:39;23.80;96.40
9049;DHT22;4559;47.252;9.592;2022-09-09T13:16:17;23.80;97.10
9049;DHT22;4559;47.252;9.592;2022-09-09T13:18:43;23.90;97.50
9049;DHT22;4559;47.252;9.592;2022-09-09T13:21:09;23.90;97.10
9049;DHT22;4559;47.252;9.592;2022-09-09T13:23:36;23.90;97.40
9049;DHT22;4559;47.252;9.592;2022-09-09T13:26:06;23.90;95.90
9049;DHT22;4559;47.252;9.592;2022-09-09T13:28:44;23.90;95.80
9049;DHT22;4559;47.252;9.592;2022-09-09T13:31:21;23.90;96.20
9049;DHT22;4559;47.252;9.592;2022-09-09T13:33:48;23.80;95.60
9049;DHT22;4559;47.252;9.592;2022-09-09T13:36:13;23.90;95.50
9049;DHT22;4559;47.252;9.592;2022-09-09T13:41:22;24.00;95.60
9049;DHT22;4559;47.252;9.592;2022-09-09T13:43:49;23.90;94.90
9049;DHT22;4559;47.252;9.592;2022-09-09T13:46:45;23.70;95.80
9049;DHT22;4559;47.252;9.592;2022-09-09T13:51:42;24.00;95.20
9049;DHT22;4559;47.252;9.592;2022-09-09T13:54:10;24.20;95.40
9049;DHT22;4559;47.252;9.592;2022-09-09T13:56:38;24.40;95.10
9049;DHT22;4559;47.252;9.592;2022-09-09T13:59:06;24.40;94.80
9049;DHT22;4559;47.252;9.592;2022-09-09T14:01:34;24.40;94.80
9049;DHT22;4559;47.252;9.592;2022-09-09T14:04:00;24.50;94.20
9049;DHT22;4559;47.252;9.592;2022-09-09T14:06:26;24.30;93.90
9049;DHT22;4559;47.252;9.592;2022-09-09T14:08:53;24.20;93.90
9049;DHT22;4559;47.252;9.592;2022-09-09T14:11:20;24.10;93.90
9049;DHT22;4559;47.252;9.592;2022-09-09T14:13:47;24.00;94.20
9049;DHT22;4559;47.252;9.592;2022-09-09T14:16:15;24.10;94.40
9049;DHT22;4559;47.252;9.592;2022-09-09T14:18:41;24.20;94.80
9049;DHT22;4559;47.252;9.592;2022-09-09T14:21:07;24.30;94.90
9049;DHT22;4559;47.252;9.592;2022-09-09T14:23:34;24.40;93.80
9049;DHT22;4559;47.252;9.592;2022-09-09T14:25:59;24.50;93.90
9049;DHT22;4559;47.252;9.592;2022-09-09T14:28:25;24.60;93.70
9049;DHT22;4559;47.252;9.592;2022-09-09T14:30:51;24.60;94.10
9049;DHT22;4559;47.252;9.592;2022-09-09T14:33:16;24.60;93.80
9049;DHT22;4559;47.252;9.592;2022-09-09T14:35:43;24.60;92.80
9049;DHT22;4559;47.252;9.592;2022-09-09T14:38:09;24.50;93.10
9049;DHT22;4559;47.252;9.592;2022-09-09T14:40:36;24.50;93.50
9049;DHT22;4559;47.252;9.592;2022-09-09T14:43:02;24.50;93.80
9049;DHT22;4559;47.252;9.592;2022-09-09T14:45:28;24.50;93.60
9049;DHT22;4559;47.252;9.592;2022-09-09T14:47:54;24.60;93.10
9049;DHT22;4559;47.252;9.592;2022-09-09T14:50:21;24.70;93.90
9049;DHT22;4559;47.252;9.592;2022-09-09T14:52:46;24.90;94.30
9049;DHT22;4559;47.252;9.592;2022-09-09T14:55:12;24.90;94.10
9049;DHT22;4559;47.252;9.592;2022-09-09T14:57:38;25.00;94.50
9049;DHT22;4559;47.252;9.592;2022-09-09T15:00:06;25.10;93.90
9049;DHT22;4559;47.252;9.592;2022-09-09T15:02:32;25.20;93.00
9049;DHT22;4559;47.252;9.592;2022-09-09T15:04:58;25.20;93.30
9049;DHT22;4559;47.252;9.592;2022-09-09T15:07:24;25.20;93.30
9049;DHT22;4559;47.252;9.592;2022-09-09T15:09:50;25.30;93.70
9049;DHT22;4559;47.252;9.592;2022-09-09T15:12:18;25.30;93.60
9049;DHT22;4559;47.252;9.592;2022-09-09T15:14:47;25.30;92.40
9049;DHT22;4559;47.252;9.592;2022-09-09T15:17:13;25.20;92.70
9049;DHT22;4559;47.252;9.592;2022-09-09T15:19:39;25.00;93.00
9049;DHT22;4559;47.252;9.592;2022-09-09T15:22:05;24.90;93.20
9049;DHT22;4559;47.252;9.592;2022-09-09T15:24:32;24.80;93.20
9049;DHT22;4559;47.252;9.592;2022-09-09T15:26:58;24.50;93.10
9049;DHT22;4559;47.252;9.592;2022-09-09T15:29:24;24.40;93.20
9049;DHT22;4559;47.252;9.592;2022-09-09T15:31:49;24.20;93.50
9049;DHT22;4559;47.252;9.592;2022-09-09T15:34:15;24.10;94.10
9049;DHT22;4559;47.252;9.592;2022-09-09T15:36:43;24.00;94.10
9049;DHT22;4559;47.252;9.592;2022-09-09T15:39:11;23.90;94.70
9049;DHT22;4559;47.252;9.592;2022-09-09T15:41:38;23.90;95.10
9049;DHT22;4559;47.252;9.592;2022-09-09T15:44:04;23.80;95.40
9049;DHT22;4559;47.252;9.592;2022-09-09T15:46:37;23.70;95.60
9049;DHT22;4559;47.252;9.592;2022-09-09T15:49:17;23.60;95.20
9049;DHT22;4559;47.252;9.592;2022-09-09T15:51:51;23.50;95.10
9049;DHT22;4559;47.252;9.592;2022-09-09T15:54:18;23.30;94.90
9049;DHT22;4559;47.252;9.592;2022-09-09T15:56:46;23.20;95.00
9049;DHT22;4559;47.252;9.592;2022-09-09T15:59:14;23.20;95.60
9049;DHT22;4559;47.252;9.592;2022-09-09T16:01:40;23.00;96.10
9049;DHT22;4559;47.252;9.592;2022-09-09T16:04:07;23.00;96.10
9049;DHT22;4559;47.252;9.592;2022-09-09T16:06:33;22.90;95.70
9049;DHT22;4559;47.252;9.592;2022-09-09T16:09:02;22.80;95.50
9049;DHT22;4559;47.252;9.592;2022-09-09T16:11:33;22.80;96.50
9049;DHT22;4559;47.252;9.592;2022-09-09T16:14:00;22.70;96.50
9049;DHT22;4559;47.252;9.592;2022-09-09T16:16:28;22.50;97.00
9049;DHT22;4559;47.252;9.592;2022-09-09T16:18:59;22.40;97.40
9049;DHT22;4559;47.252;9.592;2022-09-09T16:21:34;22.30;97.30
9049;DHT22;4559;47.252;9.592;2022-09-09T16:24:01;22.30;98.00
9049;DHT22;4559;47.252;9.592;2022-09-09T16:26:32;22.20;98.80
9049;DHT22;4559;47.252;9.592;2022-09-09T16:28:58;22.10;99.40
9049;DHT22;4559;47.252;9.592;2022-09-09T16:31:26;22.00;98.80
9049;DHT22;4559;47.252;9.592;2022-09-09T16:33:52;22.00;98.70
9049;DHT22;4559;47.252;9.592;2022-09-09T16:36:21;21.90;98.10
9049;DHT22;4559;47.252;9.592;2022-09-09T16:38:47;21.80;98.20
9049;DHT22;4559;47.252;9.592;2022-09-09T16:41:13;21.80;98.50
9049;DHT22;4559;47.252;9.592;2022-09-09T16:43:40;21.70;98.80
9049;DHT22;4559;47.252;9.592;2022-09-09T16:46:18;21.70;98.60
9049;DHT22;4559;47.252;9.592;2022-09-09T16:48:46;21.60;99.00
9049;DHT22;4559;47.252;9.592;2022-09-09T16:51:18;21.60;99.50
9049;DHT22;4559;47.252;9.592;2022-09-09T16:53:44;21.50;99.80
9049;DHT22;4559;47.252;9.592;2022-09-09T16:56:15;21.40;99.90
9049;DHT22;4559;47.252;9.592;2022-09-09T16:58:41;21.40;99.90
9049;DHT22;4559;47.252;9.592;2022-09-09T17:01:08;21.30;99.90
9049;DHT22;4559;47.252;9.592;2022-09-09T17:03:35;21.20;99.90
9049;DHT22;4559;47.252;9.592;2022-09-09T17:06:03;21.10;99.90
9049;DHT22;4559;47.252;9.592;2022-09-09T17:08:31;21.10;99.90
9049;DHT22;4559;47.252;9.592;2022-09-09T17:10:58;21.10;99.90
9049;DHT22;4559;47.252;9.592;2022-09-09T17:13:24;21.10;99.90
9049;DHT22;4559;47.252;9.592;2022-09-09T17:15:50;21.10;99.90
9049;DHT22;4559;47.252;9.592;2022-09-09T17:18:16;21.00;99.90
9049;DHT22;4559;47.252;9.592;2022-09-09T17:20:42;21.00;99.90
9049;DHT22;4559;47.252;9.592;2022-09-09T17:23:10;20.90;99.90
9049;DHT22;4559;47.252;9.592;2022-09-09T17:25:37;20.80;99.90
9049;DHT22;4559;47.252;9.592;2022-09-09T17:28:03;20.80;99.90
9049;DHT22;4559;47.252;9.592;2022-09-09T17:30:36;20.70;99.90
9049;DHT22;4559;47.252;9.592;2022-09-09T17:33:03;20.60;99.90
9049;DHT22;4559;47.252;9.592;2022-09-09T17:35:30;20.60;99.90
9049;DHT22;4559;47.252;9.592;2022-09-09T17:37:56;20.50;99.90
9049;DHT22;4559;47.252;9.592;2022-09-09T17:40:22;20.50;99.90
9049;DHT22;4559;47.252;9.592;2022-09-09T17:42:48;20.40;99.90
9049;DHT22;4559;47.252;9.592;2022-09-09T17:45:14;20.30;99.90
9049;DHT22;4559;47.252;9.592;2022-09-09T17:47:40;20.20;99.90
9049;DHT22;4559;47.252;9.592;2022-09-09T17:50:09;20.10;99.90
9049;DHT22;4559;47.252;9.592;2022-09-09T17:52:35;20.00;99.90
9049;DHT22;4559;47.252;9.592;2022-09-09T17:55:01;19.90;99.90
9049;DHT22;4559;47.252;9.592;2022-09-09T17:57:26;19.80;99.90
9049;DHT22;4559;47.252;9.592;2022-09-09T17:59:53;19.60;99.90
9049;DHT22;4559;47.252;9.592;2022-09-09T18:02:18;19.60;99.90
9049;DHT22;4559;47.252;9.592;2022-09-09T18:04:44;19.60;99.90
9049;DHT22;4559;47.252;9.592;2022-09-09T18:07:11;19.40;99.90
9049;DHT22;4559;47.252;9.592;2022-09-09T18:09:39;19.30;99.90
9049;DHT22;4559;47.252;9.592;2022-09-09T18:12:05;19.20;99.90
9049;DHT22;4559;47.252;9.592;2022-09-09T18:14:31;19.10;99.90
9049;DHT22;4559;47.252;9.592;2022-09-09T18:16:58;18.90;99.90
9049;DHT22;4559;47.252;9.592;2022-09-09T18:19:26;18.80;99.90
9049;DHT22;4559;47.252;9.592;2022-09-09T18:21:53;18.60;99.90
9049;DHT22;4559;47.252;9.592;2022-09-09T18:24:20;18.50;99.90
9049;DHT22;4559;47.252;9.592;2022-09-09T18:26:47;18.30;99.90
9049;DHT22;4559;47.252;9.592;2022-09-09T18:29:17;18.20;99.90
9049;DHT22;4559;47.252;9.592;2022-09-09T18:31:45;18.10;99.90
9049;DHT22;4559;47.252;9.592;2022-09-09T18:34:13;18.00;99.90
9049;DHT22;4559;47.252;9.592;2022-09-09T18:36:44;17.90;99.90
9049;DHT22;4559;47.252;9.592;2022-09-09T18:39:13;17.90;99.90
9049;DHT22;4559;47.252;9.592;2022-09-09T18:41:41;17.90;99.90
9049;DHT22;4559;47.252;9.592;2022-09-09T18:44:14;17.70;99.90